Time;durP1;ratioP1;P1;durP2;ratioP2;P2;SDS_P1;SDS_P2;PMS_P1;PMS_P2;Temp;Humidity;BMP_temperature;BMP_pressure;BME280_temperature;BME280_humidity;BME280_pressure;Samples;Min_cycle;Max_cycle;Signal;HPM_P1;HPM_P2
2022/03/14 00:01:27;;;;;;;;;;;;;;;0.95;59.23;101093.34;4412317;32;20293;-88
2022/03/14 00:03:57;;;;;;;;;;;;;;;0.68;59.22;101092.53;4412388;32;20024;-87
2022/03/14 00:06:23;;;;;;;;;;;;;;;0.58;59.21;101101.66;4425931;32;20009;-88
2022/03/14 00:08:48;;;;;;;;;;;;;;;0.56;59.21;101104.16;4412310;32;20224;-87
2022/03/14 00:11:15;;;;;;;;;;;;;;;0.75;59.23;101104.72;4412278;32;20008;-88
2022/03/14 00:13:46;;;;;;;;;;;;;;;0.75;59.22;101109.84;4425047;32;19993;-88
2022/03/14 00:16:24;;;;;;;;;;;;;;;0.59;59.21;101111.06;4425352;32;19965;-88
2022/03/14 00:18:51;;;;;;;;;;;;;;;0.57;59.21;101115.28;4426555;32;19969;-88
2022/03/14 00:21:25;;;;;;;;;;;;;;;0.50;59.20;101119.34;4412215;32;20050;-88
2022/03/14 00:23:55;;;;;;;;;;;;;;;0.57;59.21;101112.72;4412279;32;19997;-88
2022/03/14 00:26:22;;;;;;;;;;;;;;;0.50;59.21;101113.38;4411995;32;19977;-87
2022/03/14 00:28:47;;;;;;;;;;;;;;;0.54;59.21;101110.94;4439758;32;20015;-88
2022/03/14 00:31:12;;;;;;;;;;;;;;;0.62;59.22;101114.59;4427155;32;20009;-88
2022/03/14 00:33:39;;;;;;;;;;;;;;;0.60;59.22;101117.94;4426928;32;19989;-87
2022/03/14 00:36:05;;;;;;;;;;;;;;;0.40;59.20;101119.00;4427137;32;19973;-87
2022/03/14 00:38:30;;;;;;;;;;;;;;;0.53;59.21;101111.75;4440987;32;20321;-88
2022/03/14 00:40:56;;;;;;;;;;;;;;;0.37;59.21;101114.66;4427110;32;19996;-88
2022/03/14 00:43:21;;;;;;;;;;;;;;;0.33;59.20;101115.41;4426764;32;20372;-87
2022/03/14 00:45:47;;;;;;;;;;;;;;;0.35;59.19;101112.88;4413788;32;19993;-89
2022/03/14 00:48:12;;;;;;;;;;;;;;;-0.03;59.18;101115.94;4413692;32;20271;-88
2022/03/14 00:50:37;;;;;;;;;;;;;;;0.07;59.18;101124.81;4426775;32;19993;-88
2022/03/14 00:53:02;;;;;;;;;;;;;;;0.08;59.19;101118.00;4440868;32;20032;-88
2022/03/14 00:55:27;;;;;;;;;;;;;;;0.19;59.19;101117.50;4413386;32;23303;-87
2022/03/14 00:57:53;;;;;;;;;;;;;;;0.16;59.19;101116.56;4426722;32;19998;-88
2022/03/14 01:00:18;;;;;;;;;;;;;;;0.29;59.19;101121.25;4426752;32;19990;-87
2022/03/14 01:02:43;;;;;;;;;;;;;;;0.23;59.20;101124.47;4426337;32;21038;-88
2022/03/14 01:05:08;;;;;;;;;;;;;;;0.23;59.19;101119.34;4440806;32;20235;-88
2022/03/14 01:07:34;;;;;;;;;;;;;;;0.35;59.19;101121.44;4440643;32;19970;-88
2022/03/14 01:09:59;;;;;;;;;;;;;;;0.23;59.19;101118.47;4413880;32;20031;-88
2022/03/14 01:12:25;;;;;;;;;;;;;;;0.07;59.18;101129.94;4413798;32;19990;-88
2022/03/14 01:14:50;;;;;;;;;;;;;;;0.26;59.19;101124.59;4426445;32;20021;-88
2022/03/14 01:17:15;;;;;;;;;;;;;;;0.19;59.19;101126.88;4426713;32;19996;-88
2022/03/14 01:19:41;;;;;;;;;;;;;;;0.30;59.19;101128.13;4426218;32;19997;-88
2022/03/14 01:22:10;;;;;;;;;;;;;;;0.23;59.19;101129.59;4413727;32;20064;-88
2022/03/14 01:24:38;;;;;;;;;;;;;;;-0.04;59.18;101129.56;4414211;32;19987;-88
2022/03/14 01:27:04;;;;;;;;;;;;;;;0.16;59.19;101131.91;4426807;32;19992;-88
2022/03/14 01:29:29;;;;;;;;;;;;;;;0.14;59.18;101136.13;4440618;32;19977;-88
2022/03/14 01:31:55;;;;;;;;;;;;;;;0.14;59.18;101136.13;4426543;32;19985;-87
2022/03/14 01:34:20;;;;;;;;;;;;;;;0.16;59.19;101127.66;4440174;32;20032;-88
2022/03/14 01:36:45;;;;;;;;;;;;;;;0.26;59.19;101128.84;4426361;32;19977;-88
2022/03/14 01:39:10;;;;;;;;;;;;;;;0.12;59.19;101135.19;4413220;32;22565;-88
2022/03/14 01:41:36;;;;;;;;;;;;;;;0.19;59.19;101134.56;4425661;32;19986;-88
2022/03/14 01:44:02;;;;;;;;;;;;;;;0.15;59.18;101141.28;4426616;32;20019;-88
2022/03/14 01:46:27;;;;;;;;;;;;;;;0.30;59.20;101136.66;4440562;32;19989;-88
2022/03/14 01:48:52;;;;;;;;;;;;;;;0.28;59.20;101140.00;4440209;32;20389;-88
2022/03/14 01:51:18;;;;;;;;;;;;;;;0.30;59.20;101146.91;4426381;32;20255;-88
2022/03/14 01:53:43;;;;;;;;;;;;;;;0.18;59.19;101141.38;4413541;32;20027;-88
2022/03/14 01:56:12;;;;;;;;;;;;;;;0.21;59.19;101141.47;4426278;32;20095;-87
2022/03/14 01:58:37;;;;;;;;;;;;;;;0.08;59.19;101154.72;4413917;32;20274;-88
2022/03/14 02:01:03;;;;;;;;;;;;;;;0.06;59.18;101147.81;4426410;32;20012;-89
2022/03/14 02:03:29;;;;;;;;;;;;;;;0.01;59.17;101151.91;4426066;32;20305;-88
2022/03/14 02:05:55;;;;;;;;;;;;;;;-0.02;59.18;101156.09;4426013;32;19985;-88
2022/03/14 02:08:21;;;;;;;;;;;;;;;-0.31;59.16;101156.81;4413490;32;19986;-88
2022/03/14 02:10:46;;;;;;;;;;;;;;;-0.07;59.17;101161.88;4426260;32;19985;-88
2022/03/14 02:13:11;;;;;;;;;;;;;;;-0.09;59.17;101166.06;4425760;32;19990;-87
2022/03/14 02:15:38;;;;;;;;;;;;;;;-0.05;59.18;101166.22;4426282;32;20022;-88
2022/03/14 02:18:03;;;;;;;;;;;;;;;-0.13;59.18;101161.69;4413388;32;20020;-88
2022/03/14 02:20:28;;;;;;;;;;;;;;;-0.23;59.17;101159.63;4413492;32;19994;-87
2022/03/14 02:22:54;;;;;;;;;;;;;;;-0.39;59.15;101173.59;4426082;32;20329;-87
2022/03/14 02:25:19;;;;;;;;;;;;;;;-0.25;59.17;101167.22;4426191;32;19981;-88
2022/03/14 02:27:44;;;;;;;;;;;;;;;-0.17;59.17;101175.19;4425924;32;19997;-88
2022/03/14 02:30:10;;;;;;;;;;;;;;;-0.45;59.15;101179.37;4413369;32;20008;-88
2022/03/14 02:32:39;;;;;;;;;;;;;;;-0.34;59.16;101167.81;4413267;32;20356;-87
2022/03/14 02:35:05;;;;;;;;;;;;;;;-0.38;59.15;101173.63;4426648;32;19996;-88
2022/03/14 02:37:30;;;;;;;;;;;;;;;-0.25;59.17;101172.34;4426000;32;20013;-87
2022/03/14 02:39:55;;;;;;;;;;;;;;;-0.26;59.17;101165.50;4426071;32;19993;-88
2022/03/14 02:42:20;;;;;;;;;;;;;;;-0.34;59.16;101174.59;4426167;32;19988;-88
2022/03/14 02:44:45;;;;;;;;;;;;;;;-0.24;59.16;101176.66;4425823;32;20002;-88
2022/03/14 02:47:11;;;;;;;;;;;;;;;-0.24;59.16;101168.97;4412489;32;27851;-88
2022/03/14 02:49:37;;;;;;;;;;;;;;;-0.33;59.16;101177.22;4413143;32;20322;-88
2022/03/14 02:52:02;;;;;;;;;;;;;;;-0.37;59.15;101175.38;4412119;32;19992;-88
2022/03/14 02:54:27;;;;;;;;;;;;;;;-0.35;59.15;101181.41;4413146;32;20270;-88
2022/03/14 02:56:53;;;;;;;;;;;;;;;-0.48;59.15;101181.78;4412367;32;27664;-87
2022/03/14 02:59:19;;;;;;;;;;;;;;;-0.40;59.15;101184.62;4425688;32;20228;-87
2022/03/14 03:01:44;;;;;;;;;;;;;;;-0.47;59.15;101188.66;4413189;32;19977;-88
2022/03/14 03:04:10;;;;;;;;;;;;;;;-0.55;59.15;101186.63;4439897;32;19997;-88
2022/03/14 03:06:35;;;;;;;;;;;;;;;-0.45;59.15;101189.59;4425881;32;20331;-87
2022/03/14 03:09:03;;;;;;;;;;;;;;;-0.48;59.15;101191.16;4425756;32;19981;-87
2022/03/14 03:11:28;;;;;;;;;;;;;;;-0.66;59.13;101205.03;4425796;32;20025;-87
2022/03/14 03:13:54;;;;;;;;;;;;;;;-0.65;59.14;101199.09;4425523;32;19990;-88
2022/03/14 03:16:20;;;;;;;;;;;;;;;-0.70;59.14;101210.00;4425526;32;19998;-88
2022/03/14 03:18:45;;;;;;;;;;;;;;;-0.84;59.13;101209.47;4412996;32;19997;-88
2022/03/14 03:21:10;;;;;;;;;;;;;;;-0.86;59.13;101217.91;4412862;32;19981;-86
2022/03/14 03:23:35;;;;;;;;;;;;;;;-0.86;59.13;101212.78;4412839;32;19986;-87
2022/03/14 03:26:01;;;;;;;;;;;;;;;-0.90;59.12;101210.94;4413073;32;20384;-88
2022/03/14 03:28:26;;;;;;;;;;;;;;;-0.90;59.12;101209.25;4425624;32;20005;-88
2022/03/14 03:30:52;;;;;;;;;;;;;;;-0.94;59.12;101215.94;4412787;32;20303;-87
2022/03/14 03:33:17;;;;;;;;;;;;;;;-0.87;59.11;101217.03;4412651;32;19989;-87
2022/03/14 03:35:42;;;;;;;;;;;;;;;-0.84;59.13;101221.38;4412785;32;20350;-88
2022/03/14 03:38:08;;;;;;;;;;;;;;;-0.88;59.12;101219.53;4412476;32;20000;-87
2022/03/14 03:40:33;;;;;;;;;;;;;;;-0.86;59.12;101216.22;4425177;32;19995;-87
2022/03/14 03:42:58;;;;;;;;;;;;;;;-0.86;59.13;101223.00;4411984;32;26288;-87
2022/03/14 03:45:23;;;;;;;;;;;;;;;-0.88;59.12;101222.09;4425350;32;20005;-88
2022/03/14 03:47:49;;;;;;;;;;;;;;;-0.97;59.11;101227.69;4425356;32;20580;-87
2022/03/14 03:50:15;;;;;;;;;;;;;;;-0.91;59.12;101224.53;4412447;32;20231;-87
2022/03/14 03:52:41;;;;;;;;;;;;;;;-1.02;59.12;101227.53;4412658;32;19981;-87
2022/03/14 03:55:06;;;;;;;;;;;;;;;-0.91;59.12;101229.63;4412323;32;20029;-87
2022/03/14 03:57:31;;;;;;;;;;;;;;;-0.96;59.12;101226.87;4425375;32;20017;-87
2022/03/14 03:59:57;;;;;;;;;;;;;;;-0.94;59.12;101228.72;4425277;32;19992;-87
2022/03/14 04:02:22;;;;;;;;;;;;;;;-0.88;59.12;101229.75;4439239;32;19981;-87
2022/03/14 04:04:50;;;;;;;;;;;;;;;-0.82;59.13;101227.41;4413960;32;20001;-87
2022/03/14 04:07:19;;;;;;;;;;;;;;;-0.83;59.12;101225.69;4426884;32;19993;-87
2022/03/14 04:09:50;;;;;;;;;;;;;;;-0.83;59.13;101225.69;4427013;32;20330;-87
2022/03/14 04:12:15;;;;;;;;;;;;;;;-0.96;59.12;101225.19;4427023;32;20330;-87
2022/03/14 04:14:40;;;;;;;;;;;;;;;-0.95;59.12;101229.53;4426212;32;30494;-87
2022/03/14 04:17:07;;;;;;;;;;;;;;;-1.19;59.10;101220.88;4440602;32;23425;-87
2022/03/14 04:19:36;;;;;;;;;;;;;;;-1.25;59.10;101226.63;4414267;32;19969;-86
2022/03/14 04:22:01;;;;;;;;;;;;;;;-1.27;59.10;101233.37;4414514;32;19992;-86
2022/03/14 04:24:26;;;;;;;;;;;;;;;-1.16;59.11;101232.94;4413582;32;22235;-87
2022/03/14 04:26:52;;;;;;;;;;;;;;;-1.40;59.09;101240.50;4440793;32;19989;-87
2022/03/14 04:29:17;;;;;;;;;;;;;;;-1.20;59.10;101239.59;4440870;32;19984;-87
2022/03/14 04:31:42;;;;;;;;;;;;;;;-1.29;59.10;101250.31;4426827;32;20009;-86
2022/03/14 04:34:07;;;;;;;;;;;;;;;-1.29;59.10;101240.09;4426466;32;20311;-87
2022/03/14 04:36:33;;;;;;;;;;;;;;;-1.24;59.10;101253.91;4440936;32;20419;-87
2022/03/14 04:38:58;;;;;;;;;;;;;;;-1.36;59.09;101250.03;4426930;32;19978;-87
2022/03/14 04:41:24;;;;;;;;;;;;;;;-1.58;59.09;101253.41;4413972;32;19990;-86
2022/03/14 04:43:49;;;;;;;;;;;;;;;-1.46;59.09;101266.66;4413887;32;20017;-87
2022/03/14 04:46:14;;;;;;;;;;;;;;;-1.36;59.10;101262.81;4426759;32;19997;-87
2022/03/14 04:48:39;;;;;;;;;;;;;;;-1.43;59.09;101263.34;4426299;32;19981;-87
2022/03/14 04:51:04;;;;;;;;;;;;;;;-1.42;59.09;101265.09;4440234;32;24006;-86
2022/03/14 04:53:30;;;;;;;;;;;;;;;-1.45;59.10;101270.94;4426697;32;19977;-87
2022/03/14 04:55:55;;;;;;;;;;;;;;;-1.42;59.09;101272.75;4413877;32;20270;-88
2022/03/14 04:58:20;;;;;;;;;;;;;;;-1.36;59.10;101267.91;4413596;32;19978;-87
2022/03/14 05:00:46;;;;;;;;;;;;;;;-1.43;59.09;101271.88;4413910;32;19986;-87
2022/03/14 05:03:11;;;;;;;;;;;;;;;-1.50;59.09;101272.44;4426787;32;19986;-87
2022/03/14 05:05:37;;;;;;;;;;;;;;;-1.41;59.09;101277.94;4426821;32;19989;-87
2022/03/14 05:08:02;;;;;;;;;;;;;;;-1.31;59.09;101284.28;4426624;32;19989;-87
2022/03/14 05:10:27;;;;;;;;;;;;;;;-1.29;59.10;101285.22;4413812;32;20043;-86
2022/03/14 05:12:53;;;;;;;;;;;;;;;-1.36;59.09;101283.22;4426547;32;20017;-87
2022/03/14 05:15:18;;;;;;;;;;;;;;;-1.42;59.09;101281.31;4425818;32;20029;-87
2022/03/14 05:17:47;;;;;;;;;;;;;;;-1.38;59.09;101280.63;4426521;32;19996;-87
2022/03/14 05:20:12;;;;;;;;;;;;;;;-1.28;59.10;101286.97;4440709;32;20052;-86
2022/03/14 05:22:41;;;;;;;;;;;;;;;-1.27;59.10;101287.03;4440564;32;19982;-87
2022/03/14 05:25:07;;;;;;;;;;;;;;;-1.34;59.10;101290.16;4426796;32;20337;-87
2022/03/14 05:27:32;;;;;;;;;;;;;;;-1.23;59.11;101295.66;4426492;32;19988;-87
2022/03/14 05:29:57;;;;;;;;;;;;;;;-1.13;59.11;101285.03;4440491;32;19974;-87
2022/03/14 05:32:23;;;;;;;;;;;;;;;-1.06;59.11;101292.13;4426527;32;20435;-87
2022/03/14 05:34:48;;;;;;;;;;;;;;;-0.98;59.12;101289.84;4413786;32;20046;-87
2022/03/14 05:37:14;;;;;;;;;;;;;;;-0.95;59.12;101295.97;4425966;32;22967;-87
2022/03/14 05:39:39;;;;;;;;;;;;;;;-0.84;59.12;101292.94;4413734;32;20311;-87
2022/03/14 05:42:04;;;;;;;;;;;;;;;-0.77;59.13;101306.03;4413521;32;19981;-87
2022/03/14 05:44:29;;;;;;;;;;;;;;;-0.70;59.14;101307.16;4426469;32;20003;-87
2022/03/14 05:46:55;;;;;;;;;;;;;;;-0.49;59.15;101307.94;4412905;32;31660;-87
2022/03/14 05:49:20;;;;;;;;;;;;;;;-0.42;59.15;101314.19;4426252;32;19973;-88
2022/03/14 05:51:46;;;;;;;;;;;;;;;-0.40;59.15;101308.28;4426330;32;20314;-87
2022/03/14 05:54:11;;;;;;;;;;;;;;;-0.37;59.15;101313.53;4413620;32;20045;-87
2022/03/14 05:56:36;;;;;;;;;;;;;;;-0.18;59.16;101317.63;4426055;32;20519;-88
2022/03/14 05:59:02;;;;;;;;;;;;;;;-0.07;59.17;101324.00;4425686;32;28078;-87
2022/03/14 06:01:27;;;;;;;;;;;;;;;0.16;59.18;101326.50;4426427;32;19997;-87
2022/03/14 06:03:53;;;;;;;;;;;;;;;0.25;59.19;101331.97;4440376;32;20013;-87
2022/03/14 06:06:18;;;;;;;;;;;;;;;0.53;59.21;101328.66;4440255;32;19973;-89
2022/03/14 06:08:43;;;;;;;;;;;;;;;0.66;59.21;101329.91;4426234;32;20013;-88
2022/03/14 06:11:09;;;;;;;;;;;;;;;0.57;59.21;101333.94;4413283;32;20000;-87
2022/03/14 06:13:34;;;;;;;;;;;;;;;0.74;59.22;101334.50;4413473;32;20016;-88
2022/03/14 06:16:00;;;;;;;;;;;;;;;0.94;59.23;101327.44;4413403;32;19977;-88
2022/03/14 06:18:25;;;;;;;;;;;;;;;1.03;59.24;101340.56;4413218;32;19985;-88
2022/03/14 06:20:50;;;;;;;;;;;;;;;1.20;59.25;101341.09;4426316;32;19981;-89
2022/03/14 06:23:16;;;;;;;;;;;;;;;1.31;59.25;101339.72;4413174;32;19989;-88
2022/03/14 06:25:42;;;;;;;;;;;;;;;1.53;59.26;101344.69;4413346;32;19981;-88
2022/03/14 06:28:07;;;;;;;;;;;;;;;1.58;59.27;101346.53;4413213;32;20016;-89
2022/03/14 06:30:32;;;;;;;;;;;;;;;1.92;59.29;101345.81;4413321;32;20438;-89
2022/03/14 06:32:58;;;;;;;;;;;;;;;2.15;59.30;101342.19;4425628;32;23081;-88
2022/03/14 06:35:23;;;;;;;;;;;;;;;2.34;59.31;101340.97;4425782;32;21835;-88
2022/03/14 06:37:49;;;;;;;;;;;;;;;2.53;59.32;101347.47;4413354;32;20035;-89
2022/03/14 06:40:14;;;;;;;;;;;;;;;2.72;59.34;101348.00;4413514;32;20649;-89
2022/03/14 06:42:46;;;;;;;;;;;;;;;2.90;59.35;101337.31;4413300;32;19993;-89
2022/03/14 06:45:11;;;;;;;;;;;;;;;3.12;59.36;101342.97;4414111;32;20032;-89
2022/03/14 06:47:38;;;;;;;;;;;;;;;3.37;59.36;101337.56;4412865;32;20298;-89
2022/03/14 06:50:03;;;;;;;;;;;;;;;3.46;59.39;101330.03;4426320;32;20006;-89
2022/03/14 06:52:29;;;;;;;;;;;;;;;3.71;59.40;101334.00;4413224;32;20008;-89
2022/03/14 06:54:54;;;;;;;;;;;;;;;3.87;59.40;101342.91;4412900;32;19992;-90
2022/03/14 06:57:19;;;;;;;;;;;;;;;4.07;59.42;101341.63;4425986;32;20355;-89
2022/03/14 06:59:45;;;;;;;;;;;;;;;4.29;59.43;101338.63;4413327;32;20053;-89
2022/03/14 07:02:10;;;;;;;;;;;;;;;4.47;59.43;101340.66;4413608;32;19997;-89
2022/03/14 07:04:36;;;;;;;;;;;;;;;4.60;59.45;101334.00;4426352;32;19978;-90
2022/03/14 07:07:05;;;;;;;;;;;;;;;4.81;59.46;101341.25;4413567;32;19978;-90
2022/03/14 07:09:30;;;;;;;;;;;;;;;4.82;59.46;101348.16;4413710;32;20006;-90
2022/03/14 07:11:56;;;;;;;;;;;;;;;5.12;59.48;101347.78;4426307;32;20250;-90
2022/03/14 07:14:21;;;;;;;;;;;;;;;5.27;59.48;101345.44;4426077;32;19996;-90
2022/03/14 07:16:47;;;;;;;;;;;;;;;5.54;59.50;101339.81;4426303;32;19986;-89
2022/03/14 07:19:12;;;;;;;;;;;;;;;5.71;59.51;101332.28;4426103;32;20016;-90
2022/03/14 07:21:38;;;;;;;;;;;;;;;5.68;59.51;101335.69;4426171;32;20008;-91
2022/03/14 07:24:03;;;;;;;;;;;;;;;5.81;59.51;101342.75;4413341;32;19973;-90
2022/03/14 07:26:29;;;;;;;;;;;;;;;6.04;59.52;101335.31;4426284;32;20562;-90
2022/03/14 07:28:54;;;;;;;;;;;;;;;6.00;59.53;101338.72;4413329;32;19996;-90
2022/03/14 07:31:20;;;;;;;;;;;;;;;6.31;59.54;101337.34;4412790;32;24904;-90
2022/03/14 07:33:45;;;;;;;;;;;;;;;6.56;59.55;101330.69;4413195;32;20632;-89
2022/03/14 07:36:11;;;;;;;;;;;;;;;6.71;59.56;101335.16;4413056;32;19981;-89
2022/03/14 07:38:36;;;;;;;;;;;;;;;6.86;59.57;101335.31;4424785;32;20004;-90
2022/03/14 07:41:01;;;;;;;;;;;;;;;6.98;59.58;101332.78;4439338;32;19981;-89
2022/03/14 07:43:27;;;;;;;;;;;;;;;7.15;59.59;101332.94;4424991;32;25809;-89
2022/03/14 07:45:52;;;;;;;;;;;;;;;7.36;59.61;101333.06;4425187;32;21999;-89
2022/03/14 07:48:17;;;;;;;;;;;;;;;7.50;59.61;101327.09;4412802;32;20013;-89
2022/03/14 07:50:43;;;;;;;;;;;;;;;7.54;59.61;101328.84;4412818;32;20614;-89
2022/03/14 07:53:08;;;;;;;;;;;;;;;7.73;59.62;101329.81;4412629;32;19992;-89
2022/03/14 07:55:33;;;;;;;;;;;;;;;8.00;59.64;101323.00;4425537;32;20070;-90
2022/03/14 07:57:58;;;;;;;;;;;;;;;8.05;59.64;101335.16;4412754;32;19985;-89
2022/03/14 08:00:24;;;;;;;;;;;;;;;8.26;59.66;101336.06;4412312;32;26132;-89
2022/03/14 08:02:49;;;;;;;;;;;;;;;8.48;59.67;101329.22;4425356;32;20027;-89
2022/03/14 08:05:16;;;;;;;;;;;;;;;8.84;59.69;101336.19;4425352;32;20332;-89
2022/03/14 08:07:45;;;;;;;;;;;;;;;8.81;59.69;101333.59;4412614;32;20636;-89
2022/03/14 08:10:11;;;;;;;;;;;;;;;9.04;59.69;101335.34;4425851;32;19997;-89
2022/03/14 08:12:49;;;;;;;;;;;;;;;9.18;59.70;101336.19;4412612;32;19988;-89
2022/03/14 08:15:32;;;;;;;;;;;;;;;9.31;59.71;101339.66;4439236;32;19973;-89
2022/03/14 08:18:01;;;;;;;;;;;;;;;9.64;59.73;101338.69;4425404;32;19982;-88
2022/03/14 08:20:26;;;;;;;;;;;;;;;9.66;59.74;101342.16;4425241;32;20349;-89
2022/03/14 08:22:53;;;;;;;;;;;;;;;9.72;59.74;101340.41;4412263;32;19992;-89
2022/03/14 08:25:18;;;;;;;;;;;;;;;9.85;59.75;101339.50;4412535;32;19981;-90
2022/03/14 08:27:43;;;;;;;;;;;;;;;9.94;59.76;101343.81;4425014;32;20022;-90
2022/03/14 08:30:09;;;;;;;;;;;;;;;10.11;59.76;101344.59;4412076;32;20012;-89
2022/03/14 08:32:34;;;;;;;;;;;;;;;10.22;59.77;101347.19;4412163;32;19981;-90
2022/03/14 08:35:07;;;;;;;;;;;;;;;10.37;59.77;101336.66;4412086;32;20012;-88
2022/03/14 08:37:32;;;;;;;;;;;;;;;10.44;59.78;101342.72;4424891;32;19989;-89
2022/03/14 08:39:57;;;;;;;;;;;;;;;10.53;59.79;101342.66;4411887;32;20028;-90
2022/03/14 08:42:23;;;;;;;;;;;;;;;10.51;59.78;101343.53;4411168;32;30296;-89
2022/03/14 08:44:48;;;;;;;;;;;;;;;10.31;59.78;101347.12;4411469;32;25778;-91
2022/03/14 08:47:13;;;;;;;;;;;;;;;10.60;59.78;101341.75;4424272;32;20330;-90
2022/03/14 08:49:38;;;;;;;;;;;;;;;10.66;59.79;101340.84;4425536;32;19993;-89
2022/03/14 08:52:04;;;;;;;;;;;;;;;10.93;59.81;101347.59;4413509;32;26898;-89
2022/03/14 08:54:29;;;;;;;;;;;;;;;11.02;59.82;101339.69;4414075;32;19974;-89
2022/03/14 08:56:55;;;;;;;;;;;;;;;11.10;59.81;101337.88;4426820;32;19986;-89
2022/03/14 08:59:20;;;;;;;;;;;;;;;11.05;59.82;101337.91;4426930;32;20016;-90
2022/03/14 09:01:45;;;;;;;;;;;;;;;11.21;59.82;101337.78;4413831;32;19996;-90
2022/03/14 09:04:10;;;;;;;;;;;;;;;11.27;59.83;101338.59;4413528;32;23695;-90
2022/03/14 09:06:36;;;;;;;;;;;;;;;11.50;59.83;101338.37;4414183;32;19989;-89
2022/03/14 09:09:02;;;;;;;;;;;;;;;11.45;59.84;101336.69;4426785;32;20322;-90
2022/03/14 09:11:27;;;;;;;;;;;;;;;11.61;59.84;101349.56;4414096;32;19969;-90
2022/03/14 09:13:53;;;;;;;;;;;;;;;11.80;59.85;101336.31;4414104;32;20039;-89
2022/03/14 09:16:19;;;;;;;;;;;;;;;11.66;59.86;101334.72;4414072;32;20326;-90
2022/03/14 09:18:44;;;;;;;;;;;;;;;11.77;59.85;101336.31;4426908;32;19985;-90
2022/03/14 09:21:09;;;;;;;;;;;;;;;11.95;59.86;101338.75;4426743;32;20048;-89
2022/03/14 09:23:35;;;;;;;;;;;;;;;12.21;59.88;101338.41;4413965;32;20617;-90
2022/03/14 09:26:01;;;;;;;;;;;;;;;12.24;59.88;101335.75;4414046;32;20258;-90
2022/03/14 09:28:26;;;;;;;;;;;;;;;12.29;59.88;101333.94;4413878;32;20356;-89
2022/03/14 09:30:51;;;;;;;;;;;;;;;12.28;59.89;101337.44;4413930;32;20010;-90
2022/03/14 09:33:17;;;;;;;;;;;;;;;12.46;59.89;101334.59;4413990;32;19989;-90
2022/03/14 09:35:42;;;;;;;;;;;;;;;12.57;59.89;101339.66;4413840;32;19982;-90
2022/03/14 09:38:07;;;;;;;;;;;;;;;12.72;59.91;101331.56;4413862;32;20012;-90
2022/03/14 09:40:32;;;;;;;;;;;;;;;12.87;59.92;101328.72;4413822;32;20260;-90
2022/03/14 09:43:01;;;;;;;;;;;;;;;12.81;59.92;101333.19;4413551;32;20011;-89
2022/03/14 09:45:26;;;;;;;;;;;;;;;12.95;59.92;101333.81;4426946;32;19990;-91
2022/03/14 09:47:52;;;;;;;;;;;;;;;13.20;59.94;101331.69;4413811;32;19989;-90
2022/03/14 09:50:23;;;;;;;;;;;;;;;13.03;59.93;101328.50;4426533;32;19970;-89
2022/03/14 09:52:49;;;;;;;;;;;;;;;13.17;59.94;101335.22;4413780;32;20325;-90
2022/03/14 09:55:14;;;;;;;;;;;;;;;13.42;59.95;101333.03;4413567;32;20000;-91
2022/03/14 09:57:39;;;;;;;;;;;;;;;13.41;59.95;101327.81;4413838;32;20008;-90
2022/03/14 10:00:13;;;;;;;;;;;;;;;13.55;59.95;101332.81;4413743;32;19995;-89
2022/03/14 10:02:39;;;;;;;;;;;;;;;13.44;59.95;101336.47;4413233;32;20473;-90
2022/03/14 10:05:07;;;;;;;;;;;;;;;13.50;59.96;101336.38;4426536;32;19950;-90
2022/03/14 10:07:33;;;;;;;;;;;;;;;13.69;59.96;101326.41;4413973;32;20056;-90
2022/03/14 10:09:58;;;;;;;;;;;;;;;13.83;59.97;101336.59;4413578;32;20352;-89
2022/03/14 10:12:23;;;;;;;;;;;;;;;13.86;59.98;101326.06;4426404;32;20065;-90
2022/03/14 10:14:49;;;;;;;;;;;;;;;14.00;59.98;101318.81;4413404;32;19993;-90
2022/03/14 10:17:15;;;;;;;;;;;;;;;14.18;59.99;101314.06;4413611;32;20389;-90
2022/03/14 10:19:40;;;;;;;;;;;;;;;14.36;60.00;101311.87;4413532;32;19977;-90
2022/03/14 10:22:13;;;;;;;;;;;;;;;14.06;59.98;101323.03;4426359;32;20050;-90
2022/03/14 10:24:39;;;;;;;;;;;;;;;14.11;59.99;101308.94;4413559;32;20008;-90
2022/03/14 10:27:04;;;;;;;;;;;;;;;14.14;59.98;101321.13;4412817;32;27730;-90
2022/03/14 10:29:31;;;;;;;;;;;;;;;14.04;59.98;101332.69;4413409;32;20000;-90
2022/03/14 10:31:56;;;;;;;;;;;;;;;14.17;59.99;101313.19;4426207;32;19989;-90
2022/03/14 10:34:21;;;;;;;;;;;;;;;14.35;60.01;101319.78;4426271;32;19989;-89
2022/03/14 10:36:46;;;;;;;;;;;;;;;14.44;60.00;101319.62;4413484;32;20076;-91
2022/03/14 10:39:15;;;;;;;;;;;;;;;14.59;60.01;101321.87;4440455;32;20254;-89
2022/03/14 10:41:40;;;;;;;;;;;;;;;14.77;60.02;101324.97;4440248;32;19985;-91
2022/03/14 10:44:06;;;;;;;;;;;;;;;14.76;60.02;101326.72;4413555;32;20016;-92
2022/03/14 10:46:31;;;;;;;;;;;;;;;14.67;60.01;101313.84;4426216;32;20319;-89
2022/03/14 10:48:56;;;;;;;;;;;;;;;14.26;59.99;101323.47;4412860;32;19993;-89
2022/03/14 10:51:22;;;;;;;;;;;;;;;14.35;60.00;101328.50;4425970;32;19994;-91
2022/03/14 10:53:48;;;;;;;;;;;;;;;14.35;60.00;101325.88;4413471;32;20016;-90
2022/03/14 10:56:13;;;;;;;;;;;;;;;14.66;60.02;101318.19;4413161;32;20426;-90
2022/03/14 10:58:39;;;;;;;;;;;;;;;14.84;60.02;101329.16;4413231;32;20247;-91
2022/03/14 11:01:08;;;;;;;;;;;;;;;14.96;60.04;101318.37;4413432;32;20045;-90
2022/03/14 11:03:39;;;;;;;;;;;;;;;15.12;60.05;101316.19;4413281;32;19989;-88
2022/03/14 11:06:22;;;;;;;;;;;;;;;15.10;60.05;101316.25;4440148;32;20004;-90
2022/03/14 11:08:48;;;;;;;;;;;;;;;15.26;60.06;101307.09;4425890;32;19978;-91
2022/03/14 11:11:17;;;;;;;;;;;;;;;15.44;60.06;101307.50;4413419;32;20005;-90
2022/03/14 11:13:42;;;;;;;;;;;;;;;15.58;60.07;101300.97;4412284;32;20020;-91
2022/03/14 11:16:12;;;;;;;;;;;;;;;15.56;60.07;101297.50;4425972;32;19993;-91
2022/03/14 11:18:37;;;;;;;;;;;;;;;15.57;60.07;101299.22;4413339;32;19970;-89
2022/03/14 11:21:04;;;;;;;;;;;;;;;15.78;60.08;101303.06;4425908;32;19992;-91
2022/03/14 11:23:29;;;;;;;;;;;;;;;15.95;60.09;101294.69;4413205;32;19989;-89
2022/03/14 11:25:54;;;;;;;;;;;;;;;16.08;60.10;101297.78;4425809;32;19982;-91
2022/03/14 11:28:22;;;;;;;;;;;;;;;16.11;60.09;101295.97;4413100;32;19978;-90
2022/03/14 11:30:53;;;;;;;;;;;;;;;16.14;60.11;101290.63;4413224;32;20043;-90
2022/03/14 11:33:19;;;;;;;;;;;;;;;16.12;60.09;101286.31;4412833;32;20003;-91
2022/03/14 11:35:44;;;;;;;;;;;;;;;16.11;60.09;101292.47;4413148;32;19997;-91
2022/03/14 11:38:09;;;;;;;;;;;;;;;15.94;60.09;101291.22;4412776;32;20000;-91
2022/03/14 11:40:35;;;;;;;;;;;;;;;15.60;60.06;101280.81;4412826;32;19977;-90
2022/03/14 11:43:01;;;;;;;;;;;;;;;15.89;60.08;101269.47;4412915;32;20333;-90
2022/03/14 11:45:26;;;;;;;;;;;;;;;15.97;60.08;101279.75;4412932;32;19985;-91
2022/03/14 11:47:51;;;;;;;;;;;;;;;16.05;60.09;101274.25;4412843;32;20031;-90
2022/03/14 11:50:18;;;;;;;;;;;;;;;16.22;60.09;101267.59;4412543;32;19977;-91
2022/03/14 11:52:43;;;;;;;;;;;;;;;16.42;60.12;101268.72;4412849;32;20043;-91
2022/03/14 11:55:16;;;;;;;;;;;;;;;16.45;60.11;101271.25;4412372;32;19996;-91
2022/03/14 11:57:41;;;;;;;;;;;;;;;16.48;60.12;101260.63;4425453;32;19992;-91
2022/03/14 12:00:22;;;;;;;;;;;;;;;16.61;60.13;101269.84;4412811;32;19990;-92
2022/03/14 12:02:51;;;;;;;;;;;;;;;16.67;60.12;101269.69;4425292;32;20004;-91
2022/03/14 12:05:22;;;;;;;;;;;;;;;16.56;60.12;101266.50;4412384;32;20001;-90
2022/03/14 12:07:47;;;;;;;;;;;;;;;16.65;60.13;101273.25;4439331;32;19996;-91
2022/03/14 12:10:26;;;;;;;;;;;;;;;16.50;60.12;101266.69;4425248;32;19985;-91
2022/03/14 12:12:53;;;;;;;;;;;;;;;16.68;60.12;101267.91;4425027;32;20475;-92
2022/03/14 12:15:39;;;;;;;;;;;;;;;16.51;60.12;101264.03;4412327;32;20009;-90
2022/03/14 12:18:23;;;;;;;;;;;;;;;16.14;60.11;101261.72;4412632;32;20052;-91
2022/03/14 12:20:51;;;;;;;;;;;;;;;16.32;60.11;101267.28;4425017;32;19981;-91
2022/03/14 12:23:23;;;;;;;;;;;;;;;16.44;60.12;101261.66;4424995;32;20060;-91
2022/03/14 12:25:48;;;;;;;;;;;;;;;16.57;60.12;101260.34;4426838;32;20349;-90
2022/03/14 12:28:27;;;;;;;;;;;;;;;16.53;60.13;101253.47;4414565;32;20047;-90
2022/03/14 12:30:56;;;;;;;;;;;;;;;16.22;60.11;101246.56;4414390;32;20307;-90
2022/03/14 12:33:34;;;;;;;;;;;;;;;16.31;60.11;101244.53;4414509;32;19997;-91
2022/03/14 12:36:35;;;;;;;;;;;;;;;16.30;60.11;101248.06;4427252;32;20001;-90